Dangriga, Belize

9:02 PM CST on March 29, 2017 (GMT -0600)
George Price Drive, Dangriga | | Change Station

Elev 20 ft 16.96 °N, 88.23 °W | Updated 2 seconds ago

Clear
Clear
80.0 °F
Feels Like 85 °F
N
4.7
Wind Variable Wind from NE
Gusts 11.0 mph

Today
High -- | Low -- °F
--% Chance of Precip.
Yesterday
High -- | Low -- °F
Precip. -- in
Pressure 29.84 in
Visibility 6.2 miles
Clouds Few 2200 ft
Heat Index 85 °F
Dew Point 73 °F
Humidity 82%
Rainfall 0.00 in
Snow Depth Not available.
5:49 AM 6:05 PM
Waxing Crescent, 6% visible
METAR MZBZ 300200Z 10007KT 9999 FEW022 27/25 A2984 Q1010 NOSIG
Pressure 29.84 in
Visibility 6.2 miles
Clouds Few 2200 ft
Heat Index 85 °F
Dew Point 73 °F
Humidity 82%
Rainfall 0.00 in
Snow Depth Not available.
5:49 AM 6:05 PM
Waxing Crescent, 6% visible
METAR MZBZ 300200Z 10007KT 9999 FEW022 27/25 A2984 Q1010 NOSIG

Get Severe Weather Alerts

Thanks for signing up!

Be on the lookout for a verification email in your inbox.

You'll start receiving the daily forecast at 8 AM.

×

10-Day Weather Forecast

No radar image for this location.
×

Almanac

Astronomy

Mar. 29, 2017 Rise Set
Actual Time
Civil Twilight
Nautical Twilight
Astronomical Twilight
Moon
Length of Visible Light
Length of Day
Tomorrow will be .
, % of the Moon is Illuminated

Today's Extremes

Country Highs Country Lows

Community

WunderPhotos

Upload Photos

1,962,540 photos uploaded!

WunderBlog® & News

Nearby

Air Quality

  Air Quality AQ Index Pollutant
Not available.

Snow Depth

Station Depth Elevation

Earthquake Activity

City Distance Mag. Time & Date
Minimum magnitude displayed is 2.5.

Earthquake Activity

City Distance Mag. Time & Date
Minimum magnitude displayed is 2.5.

Coastal Water Temperatures

Place Temperature

Stations

Nearby Weather Stations

Station Location Temp. Windchill Dew Point Humidity Wind Precip. Elev Updated Type